createdAt,value
2017-11-11T00:00:42.513Z,79.70
2017-11-11T00:03:10.016Z,80.20
2017-11-11T00:05:36.742Z,80.10
2017-11-11T00:08:03.471Z,79.80
2017-11-11T00:10:30.275Z,79.50
2017-11-11T00:12:57.032Z,79.20
2017-11-11T00:15:23.854Z,79.10
2017-11-11T00:17:51.618Z,79.50
2017-11-11T00:20:18.525Z,79.60
2017-11-11T00:22:45.210Z,79.70
2017-11-11T00:25:11.928Z,79.50
2017-11-11T00:27:39.565Z,79.40
2017-11-11T00:30:06.178Z,79.70
2017-11-11T00:32:32.848Z,80.20
2017-11-11T00:34:59.946Z,80.50
2017-11-11T00:37:26.813Z,81.00
2017-11-11T00:39:54.329Z,81.10
2017-11-11T00:42:21.289Z,81.40
2017-11-11T00:44:48.105Z,81.40
2017-11-11T00:47:18.687Z,81.40
2017-11-11T00:49:46.343Z,81.20
2017-11-11T00:52:14.620Z,81.00
2017-11-11T00:54:43.614Z,81.00
2017-11-11T00:57:10.496Z,81.10
2017-11-11T00:59:37.323Z,81.30
2017-11-11T01:02:03.961Z,81.40
2017-11-11T01:04:30.702Z,81.60
2017-11-11T01:06:57.721Z,81.80
2017-11-11T01:09:25.491Z,82.00
2017-11-11T01:11:52.294Z,82.40
2017-11-11T01:14:19.086Z,82.60
2017-11-11T01:16:46.827Z,82.70
2017-11-11T01:19:13.777Z,82.90
2017-11-11T01:21:40.532Z,82.80
2017-11-11T01:24:08.668Z,82.90
2017-11-11T01:26:35.435Z,82.90
2017-11-11T01:29:02.271Z,83.80
2017-11-11T01:31:29.069Z,83.40
2017-11-11T01:33:58.614Z,83.60
2017-11-11T01:36:25.798Z,83.80
2017-11-11T01:38:52.496Z,83.90
2017-11-11T01:41:19.124Z,84.00
2017-11-11T01:43:45.736Z,83.70
2017-11-11T01:46:12.335Z,83.80
2017-11-11T01:48:39.109Z,83.80
2017-11-11T01:51:05.745Z,84.40
2017-11-11T01:53:33.616Z,83.60
2017-11-11T01:56:00.580Z,83.50
2017-11-11T01:58:27.464Z,83.70
2017-11-11T02:00:54.190Z,83.60
2017-11-11T02:03:21.026Z,83.70
2017-11-11T02:05:47.897Z,84.10
2017-11-11T02:08:14.642Z,84.30
2017-11-11T02:10:41.483Z,84.30
2017-11-11T02:13:08.264Z,84.40
2017-11-11T02:15:34.919Z,84.50
2017-11-11T02:18:02.520Z,84.90
2017-11-11T02:20:29.540Z,85.10
2017-11-11T02:22:56.358Z,85.20
2017-11-11T02:25:23.556Z,85.40
2017-11-11T02:27:50.508Z,85.60
2017-11-11T02:30:17.524Z,85.40
2017-11-11T02:32:44.188Z,85.50
2017-11-11T02:35:10.985Z,85.60
2017-11-11T02:37:39.405Z,85.40
2017-11-11T02:40:07.139Z,84.70
2017-11-11T02:42:33.968Z,83.60
2017-11-11T02:45:00.783Z,82.20
2017-11-11T02:47:28.635Z,80.50
2017-11-11T02:49:55.361Z,80.40
2017-11-11T02:52:22.036Z,80.30
2017-11-11T02:54:48.712Z,80.40
2017-11-11T02:57:16.062Z,80.90
2017-11-11T03:02:16.919Z,80.80
2017-11-11T03:04:43.759Z,80.90
2017-11-11T03:07:11.080Z,81.00
2017-11-11T03:09:37.904Z,81.50
2017-11-11T03:12:04.635Z,82.00
2017-11-11T03:14:31.434Z,82.30
2017-11-11T03:16:58.353Z,82.80
2017-11-11T03:19:24.922Z,83.10
2017-11-11T03:21:52.643Z,83.40
2017-11-11T03:24:19.711Z,83.30
2017-11-11T03:26:46.324Z,83.00
2017-11-11T03:29:13.927Z,82.80
2017-11-11T03:31:40.798Z,82.70
2017-11-11T03:34:07.701Z,82.90
2017-11-11T03:36:34.285Z,83.00
2017-11-11T03:39:01.098Z,83.20
2017-11-11T03:41:27.869Z,83.40
2017-11-11T03:43:54.663Z,83.60
2017-11-11T03:46:22.045Z,83.60
2017-11-11T03:48:49.427Z,83.70
2017-11-11T03:51:16.324Z,83.70
2017-11-11T03:53:44.095Z,84.00
2017-11-11T03:56:11.412Z,84.20
2017-11-11T03:58:38.669Z,84.40
2017-11-11T04:01:06.060Z,84.60
2017-11-11T04:03:32.946Z,84.60
2017-11-11T04:05:59.648Z,84.70
2017-11-11T04:08:26.268Z,84.70
2017-11-11T04:10:52.853Z,84.60
2017-11-11T04:13:20.685Z,84.60
2017-11-11T04:15:47.777Z,84.60
2017-11-11T04:18:15.925Z,84.00
2017-11-11T04:20:42.681Z,84.00
2017-11-11T04:23:09.469Z,83.90
2017-11-11T04:25:36.228Z,83.80
2017-11-11T04:28:03.008Z,83.80
2017-11-11T04:30:29.741Z,83.70
2017-11-11T04:32:57.552Z,83.40
2017-11-11T04:35:24.358Z,83.40
2017-11-11T04:37:51.786Z,83.60
2017-11-11T04:40:18.485Z,83.80
2017-11-11T04:42:45.265Z,84.10
2017-11-11T04:48:02.635Z,84.50
2017-11-11T04:50:29.429Z,84.50
2017-11-11T04:52:56.360Z,84.40
2017-11-11T04:55:22.994Z,84.30
2017-11-11T04:57:49.633Z,84.20
2017-11-11T05:00:16.404Z,84.30
2017-11-11T05:02:43.867Z,84.10
2017-11-11T05:05:10.589Z,84.10
2017-11-11T05:07:38.991Z,83.60
2017-11-11T05:10:05.718Z,83.20
2017-11-11T05:12:32.333Z,82.90
2017-11-11T05:14:59.300Z,82.90
2017-11-11T05:17:26.138Z,83.20
2017-11-11T05:19:52.878Z,83.20
2017-11-11T05:22:19.593Z,83.30
2017-11-11T05:24:46.330Z,83.70
2017-11-11T05:27:13.004Z,83.80
2017-11-11T05:29:39.624Z,83.90
2017-11-11T05:32:06.670Z,84.20
2017-11-11T05:34:33.429Z,84.30
2017-11-11T05:37:00.242Z,84.50
2017-11-11T05:39:26.977Z,84.70
2017-11-11T05:41:53.889Z,84.60
2017-11-11T05:44:21.317Z,84.60
2017-11-11T05:46:48.070Z,84.50
2017-11-11T05:49:15.331Z,84.60
2017-11-11T05:51:42.657Z,84.50
2017-11-11T05:54:09.472Z,84.40
2017-11-11T05:56:36.561Z,84.20
2017-11-11T05:59:03.444Z,84.20
2017-11-11T06:01:30.129Z,83.90
2017-11-11T06:03:58.099Z,83.90
2017-11-11T06:06:25.057Z,83.90
2017-11-11T06:08:52.598Z,84.20
2017-11-11T06:11:19.642Z,84.20
2017-11-11T06:13:46.387Z,83.80
2017-11-11T06:16:13.161Z,83.60
2017-11-11T06:18:39.969Z,83.50
2017-11-11T06:21:06.586Z,83.50
2017-11-11T06:23:33.572Z,83.50
2017-11-11T06:26:00.500Z,83.40
2017-11-11T06:28:27.516Z,83.30
2017-11-11T06:30:55.020Z,83.10
2017-11-11T06:33:23.176Z,83.00
2017-11-11T06:35:50.474Z,82.90
2017-11-11T06:38:17.587Z,82.90
2017-11-11T06:40:45.722Z,82.80
2017-11-11T06:43:13.517Z,82.70
2017-11-11T06:45:40.420Z,82.60
2017-11-11T06:48:07.412Z,82.50
2017-11-11T06:50:34.994Z,82.60
2017-11-11T06:53:02.233Z,82.50
2017-11-11T06:55:29.261Z,82.60
2017-11-11T06:57:56.461Z,83.30
2017-11-11T07:00:24.019Z,82.90
2017-11-11T07:02:50.936Z,83.10
2017-11-11T07:05:17.659Z,83.30
2017-11-11T07:07:44.548Z,83.40
2017-11-11T07:10:11.432Z,83.70
2017-11-11T07:12:38.390Z,83.90
2017-11-11T07:15:08.006Z,84.30
2017-11-11T07:17:35.476Z,84.50
2017-11-11T07:20:02.346Z,84.70
2017-11-11T07:22:29.102Z,84.70
2017-11-11T07:24:55.979Z,84.80
2017-11-11T07:27:22.776Z,84.70
2017-11-11T07:29:49.460Z,84.60
2017-11-11T07:32:16.435Z,84.50
2017-11-11T07:34:44.959Z,84.50
2017-11-11T07:37:11.939Z,84.50
2017-11-11T07:39:38.746Z,84.20
2017-11-11T07:42:05.410Z,83.90
2017-11-11T07:44:32.188Z,84.00
2017-11-11T07:46:58.991Z,84.10
2017-11-11T07:49:25.727Z,84.10
2017-11-11T07:51:52.391Z,84.00
2017-11-11T07:54:19.021Z,84.00
2017-11-11T07:56:45.839Z,83.90
2017-11-11T07:59:12.615Z,83.60
2017-11-11T08:01:39.346Z,83.20
2017-11-11T08:04:06.327Z,83.10
2017-11-11T08:06:32.972Z,82.40
2017-11-11T08:08:59.662Z,81.50
2017-11-11T08:11:26.637Z,81.20
2017-11-11T08:13:54.987Z,81.20
2017-11-11T08:16:22.891Z,81.50
2017-11-11T08:18:49.638Z,81.60
2017-11-11T08:21:16.769Z,82.10
2017-11-11T08:23:43.785Z,81.80
2017-11-11T08:26:11.523Z,81.40
2017-11-11T08:28:38.809Z,81.50
2017-11-11T08:31:07.142Z,81.10
2017-11-11T08:33:34.098Z,81.10
2017-11-11T08:36:00.763Z,81.10
2017-11-11T08:38:28.278Z,80.70
2017-11-11T08:40:54.965Z,80.40
2017-11-11T08:43:21.632Z,80.60
2017-11-11T08:45:48.315Z,80.10
2017-11-11T08:48:15.099Z,80.30
2017-11-11T08:50:41.916Z,79.80
2017-11-11T08:53:08.577Z,80.30
2017-11-11T08:55:35.357Z,80.40
2017-11-11T08:58:02.038Z,80.80
2017-11-11T09:00:28.781Z,80.20
2017-11-11T09:02:55.542Z,80.10
2017-11-11T09:05:22.733Z,80.20
2017-11-11T09:13:32.684Z,80.40
2017-11-11T09:15:59.536Z,79.80
2017-11-11T09:18:26.811Z,80.70
2017-11-11T09:20:53.882Z,79.30
2017-11-11T09:23:20.541Z,79.10
2017-11-11T09:25:47.277Z,78.50
2017-11-11T09:28:14.066Z,78.50
2017-11-11T09:30:41.129Z,78.70
2017-11-11T09:33:08.097Z,78.60
2017-11-11T09:35:34.807Z,77.80
2017-11-11T09:38:01.445Z,77.80
2017-11-11T09:40:28.658Z,78.10
2017-11-11T09:42:56.317Z,78.00
2017-11-11T09:45:23.872Z,77.40
2017-11-11T09:50:25.076Z,76.90
2017-11-11T09:52:52.562Z,77.80
2017-11-11T09:55:19.900Z,77.80
2017-11-11T09:57:46.720Z,77.60
2017-11-11T10:00:13.887Z,77.90
2017-11-11T10:02:42.449Z,78.20
2017-11-11T10:05:10.160Z,77.80
2017-11-11T10:07:37.876Z,77.60
2017-11-11T10:10:05.337Z,77.60
2017-11-11T10:12:32.590Z,77.30
2017-11-11T10:14:59.414Z,76.90
2017-11-11T10:17:26.115Z,76.80
2017-11-11T10:19:52.884Z,76.70
2017-11-11T10:22:20.236Z,75.90
2017-11-11T10:24:47.523Z,75.90
2017-11-11T10:27:15.263Z,76.40
2017-11-11T10:29:44.035Z,76.20
2017-11-11T10:32:10.990Z,75.90
2017-11-11T10:34:37.875Z,76.20
2017-11-11T10:37:04.937Z,76.00
2017-11-11T10:39:31.952Z,75.90
2017-11-11T10:42:00.001Z,75.10
2017-11-11T10:44:26.747Z,75.10
2017-11-11T10:46:54.532Z,75.30
2017-11-11T10:49:21.465Z,75.30
2017-11-11T10:51:48.230Z,75.70
2017-11-11T10:54:14.789Z,76.00
2017-11-11T10:56:43.482Z,77.00
2017-11-11T10:59:10.451Z,77.00
2017-11-11T11:01:37.304Z,77.50
2017-11-11T11:04:04.478Z,78.00
2017-11-11T11:06:31.164Z,78.20
2017-11-11T11:08:57.844Z,78.20
2017-11-11T11:11:25.328Z,78.20
2017-11-11T11:13:52.121Z,78.10
2017-11-11T11:16:18.972Z,78.80
2017-11-11T11:18:45.776Z,80.10
2017-11-11T11:21:12.637Z,81.20
2017-11-11T11:23:39.308Z,81.30
2017-11-11T11:26:06.089Z,81.30
2017-11-11T11:28:32.893Z,81.30
2017-11-11T11:31:00.434Z,80.90
2017-11-11T11:33:28.142Z,80.70
2017-11-11T11:35:54.797Z,80.70
2017-11-11T11:38:21.822Z,80.40
2017-11-11T11:40:48.579Z,80.30
2017-11-11T11:43:16.020Z,80.00
2017-11-11T11:45:42.629Z,80.00
2017-11-11T11:48:09.443Z,80.10
2017-11-11T11:50:36.295Z,79.30
2017-11-11T11:53:03.375Z,79.20
2017-11-11T11:55:30.890Z,78.60
2017-11-11T11:57:57.441Z,77.20
2017-11-11T12:00:24.456Z,76.90
2017-11-11T12:02:51.714Z,77.60
2017-11-11T12:05:18.381Z,77.20
2017-11-11T12:07:45.266Z,77.40
2017-11-11T12:10:12.029Z,77.50
2017-11-11T12:12:39.456Z,77.20
2017-11-11T12:15:06.462Z,77.20
2017-11-11T12:17:34.028Z,77.40
2017-11-11T12:20:00.867Z,76.90
2017-11-11T12:22:29.185Z,76.10
2017-11-11T12:24:56.265Z,76.70
2017-11-11T12:27:23.078Z,77.10
2017-11-11T12:29:49.783Z,77.20
2017-11-11T12:32:16.540Z,77.60
2017-11-11T12:34:43.502Z,77.50
2017-11-11T12:37:10.521Z,77.40
2017-11-11T12:39:37.438Z,77.60
2017-11-11T12:42:04.481Z,77.90
2017-11-11T12:44:33.103Z,77.60
2017-11-11T12:47:00.706Z,77.60
2017-11-11T12:49:27.419Z,77.30
2017-11-11T12:51:54.310Z,77.20
2017-11-11T12:54:21.273Z,77.90
2017-11-11T12:56:48.133Z,77.50
2017-11-11T12:59:14.883Z,77.50
2017-11-11T13:01:42.755Z,77.80
2017-11-11T13:04:10.957Z,77.40
2017-11-11T13:06:37.744Z,77.40
2017-11-11T13:09:04.519Z,77.30
2017-11-11T13:11:31.366Z,77.40
2017-11-11T13:13:58.129Z,77.90
2017-11-11T13:16:25.730Z,77.40
2017-11-11T13:18:52.487Z,77.30
2017-11-11T13:21:19.265Z,77.30
2017-11-11T13:23:46.096Z,77.00
2017-11-11T13:26:12.713Z,76.90
2017-11-11T13:28:39.564Z,78.10
2017-11-11T13:31:06.772Z,77.80
2017-11-11T13:33:33.584Z,77.20
2017-11-11T13:36:00.202Z,76.70
2017-11-11T13:38:26.970Z,76.60
2017-11-11T13:40:53.572Z,75.60
2017-11-11T13:43:23.967Z,76.40
2017-11-11T13:45:51.042Z,76.40
2017-11-11T13:48:19.433Z,77.00
2017-11-11T13:50:46.293Z,76.90
2017-11-11T13:53:13.452Z,75.30
2017-11-11T13:55:40.136Z,74.60
2017-11-11T13:58:07.078Z,72.60
2017-11-11T14:00:33.844Z,71.50
2017-11-11T14:03:01.343Z,72.60
2017-11-11T14:05:28.166Z,72.50
2017-11-11T14:07:55.202Z,71.50
2017-11-11T14:10:21.916Z,72.20
2017-11-11T14:12:48.702Z,73.60
2017-11-11T14:15:16.249Z,76.80
2017-11-11T14:17:43.056Z,76.60
2017-11-11T14:20:09.744Z,76.80
2017-11-11T14:22:36.456Z,77.00
2017-11-11T14:25:03.114Z,77.60
2017-11-11T14:27:29.874Z,76.60
2017-11-11T14:29:56.561Z,76.80
2017-11-11T14:32:23.149Z,77.20
2017-11-11T14:34:49.916Z,77.60
2017-11-11T14:37:16.845Z,77.80
2017-11-11T14:39:44.632Z,78.00
2017-11-11T14:42:11.285Z,78.40
2017-11-11T14:44:38.430Z,78.70
2017-11-11T14:47:05.339Z,79.00
2017-11-11T14:49:31.956Z,79.40
2017-11-11T14:51:58.690Z,79.70
2017-11-11T14:54:25.511Z,80.10
2017-11-11T14:56:52.284Z,80.40
2017-11-11T14:59:19.171Z,80.90
2017-11-11T15:01:45.916Z,81.10
2017-11-11T15:04:12.698Z,81.20
2017-11-11T15:06:39.679Z,81.10
2017-11-11T15:09:06.489Z,81.20
2017-11-11T15:11:33.461Z,81.30
2017-11-11T15:14:00.354Z,81.40
2017-11-11T15:16:27.125Z,81.20
2017-11-11T15:18:53.954Z,81.20
2017-11-11T15:21:20.983Z,81.50
2017-11-11T15:23:47.760Z,81.40
2017-11-11T15:26:14.585Z,81.60
2017-11-11T15:28:41.395Z,81.80
2017-11-11T15:31:08.070Z,82.00
2017-11-11T15:33:34.767Z,82.60
2017-11-11T15:36:01.634Z,83.00
2017-11-11T15:38:28.524Z,83.20
2017-11-11T15:40:55.215Z,84.10
2017-11-11T15:43:22.184Z,83.30
2017-11-11T15:45:48.918Z,83.20
2017-11-11T15:48:15.737Z,83.00
2017-11-11T15:50:42.470Z,82.80
2017-11-11T15:53:09.356Z,83.00
2017-11-11T15:55:36.077Z,83.00
2017-11-11T15:58:03.934Z,83.10
2017-11-11T16:00:30.917Z,83.00
2017-11-11T16:02:58.423Z,82.90
2017-11-11T16:05:25.314Z,83.40
2017-11-11T16:07:52.073Z,83.50
2017-11-11T16:10:18.864Z,83.90
2017-11-11T16:12:45.629Z,84.80
2017-11-11T16:15:12.365Z,84.40
2017-11-11T16:17:39.384Z,85.00
2017-11-11T16:20:06.079Z,85.30
2017-11-11T16:22:33.327Z,85.40
2017-11-11T16:25:00.049Z,85.90
2017-11-11T16:27:26.920Z,86.10
2017-11-11T16:29:53.910Z,86.40
2017-11-11T16:32:21.559Z,86.50
2017-11-11T16:34:48.571Z,86.70
2017-11-11T16:37:16.467Z,86.80
2017-11-11T16:39:46.442Z,86.90
2017-11-11T16:42:13.301Z,87.00
2017-11-11T16:44:42.746Z,87.10
2017-11-11T16:47:11.276Z,87.20
2017-11-11T16:49:39.682Z,87.40
2017-11-11T16:52:06.467Z,87.30
2017-11-11T16:54:33.137Z,87.80
2017-11-11T16:57:00.337Z,87.90
2017-11-11T16:59:27.041Z,87.90
2017-11-11T17:01:54.626Z,87.90
2017-11-11T17:04:21.825Z,87.90
2017-11-11T17:06:48.650Z,88.10
2017-11-11T17:09:15.272Z,87.90
2017-11-11T17:11:42.238Z,88.00
2017-11-11T17:14:09.054Z,88.00
2017-11-11T17:16:35.775Z,88.10
2017-11-11T17:19:03.305Z,87.90
2017-11-11T17:21:30.191Z,87.80
2017-11-11T17:23:57.538Z,87.90
2017-11-11T17:26:24.768Z,87.90
2017-11-11T17:28:51.660Z,87.70
2017-11-11T17:31:18.725Z,87.80
2017-11-11T17:33:45.904Z,87.90
2017-11-11T17:36:12.929Z,87.70
2017-11-11T17:38:39.828Z,87.80
2017-11-11T17:41:06.723Z,87.30
2017-11-11T17:43:34.178Z,87.80
2017-11-11T17:46:01.117Z,87.90
2017-11-11T17:48:28.056Z,88.00
2017-11-11T17:50:55.104Z,87.90
2017-11-11T17:53:21.893Z,88.40
2017-11-11T17:55:49.248Z,87.80
2017-11-11T17:58:16.270Z,87.80
2017-11-11T18:00:43.078Z,87.50
2017-11-11T18:03:10.648Z,87.70
2017-11-11T18:05:37.424Z,87.60
2017-11-11T18:08:04.332Z,87.70
2017-11-11T18:10:31.443Z,87.90
2017-11-11T18:12:58.872Z,88.30
2017-11-11T18:15:25.597Z,87.80
2017-11-11T18:17:52.343Z,88.10
2017-11-11T18:20:19.144Z,88.10
2017-11-11T18:22:45.873Z,88.00
2017-11-11T18:25:13.786Z,88.00
2017-11-11T18:27:40.725Z,88.30
2017-11-11T18:30:09.716Z,88.40
2017-11-11T18:32:36.456Z,88.40
2017-11-11T18:35:04.614Z,88.30
2017-11-11T18:37:31.468Z,88.40
2017-11-11T18:39:58.663Z,88.30
2017-11-11T18:42:25.991Z,88.20
2017-11-11T18:44:52.711Z,88.80
2017-11-11T18:47:19.719Z,88.00
2017-11-11T18:49:46.464Z,87.90
2017-11-11T18:52:13.317Z,87.80
2017-11-11T18:54:41.031Z,87.90
2017-11-11T18:57:07.637Z,87.80
2017-11-11T18:59:35.027Z,87.60
2017-11-11T19:02:02.326Z,87.30
2017-11-11T19:04:29.056Z,87.10
2017-11-11T19:06:55.859Z,87.00
2017-11-11T19:09:23.223Z,86.80
2017-11-11T19:11:51.874Z,86.40
2017-11-11T19:14:19.283Z,86.30
2017-11-11T19:16:47.119Z,86.40
2017-11-11T19:19:15.015Z,86.50
2017-11-11T19:21:42.273Z,86.70
2017-11-11T19:45:10.406Z,87.40
2017-11-11T19:47:37.361Z,87.50
2017-11-11T19:50:04.419Z,87.70
2017-11-11T19:52:31.125Z,88.10
2017-11-11T19:57:57.604Z,88.70
2017-11-11T20:00:25.191Z,88.50
2017-11-11T20:11:27.111Z,88.90
2017-11-11T20:13:53.742Z,89.30
2017-11-11T20:16:20.431Z,89.30
2017-11-11T20:18:47.521Z,89.50
2017-11-11T20:21:14.599Z,89.40
2017-11-11T20:23:41.523Z,89.40
2017-11-11T20:26:08.380Z,89.40
2017-11-11T20:28:35.233Z,89.40
2017-11-11T20:31:02.097Z,89.10
2017-11-11T20:33:30.210Z,89.10
2017-11-11T20:35:57.063Z,88.90
2017-11-11T20:38:24.423Z,89.00
2017-11-11T20:40:51.305Z,88.70
2017-11-11T20:43:18.100Z,88.60
2017-11-11T20:45:45.984Z,88.60
2017-11-11T20:48:12.642Z,88.50
2017-11-11T20:50:39.514Z,88.60
2017-11-11T20:53:07.101Z,88.30
2017-11-11T20:55:33.936Z,88.30
2017-11-11T20:58:00.603Z,88.30
2017-11-11T21:00:27.249Z,88.30
2017-11-11T21:02:54.076Z,88.10
2017-11-11T21:05:20.693Z,87.90
2017-11-11T21:07:47.584Z,87.80
2017-11-11T21:10:14.485Z,87.50
2017-11-11T21:12:41.266Z,87.40
2017-11-11T21:15:08.188Z,87.40
2017-11-11T21:17:35.251Z,87.30
2017-11-11T21:20:01.937Z,87.40
2017-11-11T21:22:28.800Z,87.40
2017-11-11T21:24:55.832Z,87.90
2017-11-11T21:27:22.667Z,87.80
2017-11-11T21:29:49.422Z,87.80
2017-11-11T21:32:17.253Z,87.80
2017-11-11T21:34:44.916Z,87.40
2017-11-11T21:37:11.873Z,87.40
2017-11-11T21:39:38.614Z,87.30
2017-11-11T21:42:05.398Z,87.40
2017-11-11T21:44:33.163Z,87.10
2017-11-11T21:47:00.996Z,87.00
2017-11-11T21:49:28.180Z,86.80
2017-11-11T21:51:55.854Z,87.20
2017-11-11T21:54:22.873Z,87.00
2017-11-11T21:56:49.907Z,87.00
2017-11-11T21:59:16.684Z,87.20
2017-11-11T22:01:43.492Z,87.20
2017-11-11T22:04:11.221Z,87.40
2017-11-11T22:06:38.180Z,87.40
2017-11-11T22:09:04.938Z,87.40
2017-11-11T22:11:31.613Z,87.60
2017-11-11T22:13:58.327Z,87.70
2017-11-11T22:16:25.329Z,87.60
2017-11-11T22:18:52.152Z,87.70
2017-11-11T22:21:18.786Z,87.50
2017-11-11T22:23:45.756Z,87.30
2017-11-11T22:26:12.461Z,87.20
2017-11-11T22:28:39.210Z,87.20
2017-11-11T22:31:06.508Z,87.20
2017-11-11T22:33:34.804Z,87.40
2017-11-11T22:36:02.274Z,87.30
2017-11-11T22:38:29.080Z,87.30
2017-11-11T22:40:56.610Z,87.30
2017-11-11T22:43:23.701Z,87.20
2017-11-11T22:45:50.782Z,87.30
2017-11-11T22:48:18.340Z,87.40
2017-11-11T22:50:45.570Z,87.60
2017-11-11T22:53:12.368Z,87.70
2017-11-11T22:55:39.181Z,87.90
2017-11-11T22:58:05.826Z,87.90
2017-11-11T23:00:38.500Z,87.90
2017-11-11T23:03:05.360Z,87.90
2017-11-11T23:05:32.132Z,87.70
2017-11-11T23:07:59.144Z,87.50
2017-11-11T23:10:26.184Z,87.40
2017-11-11T23:12:53.648Z,87.20
2017-11-11T23:15:20.725Z,87.20
2017-11-11T23:17:47.700Z,87.30
2017-11-11T23:20:14.423Z,87.30
2017-11-11T23:22:41.390Z,87.50
2017-11-11T23:25:09.031Z,87.50
2017-11-11T23:27:36.561Z,87.60
2017-11-11T23:30:03.610Z,87.90
2017-11-11T23:32:30.396Z,87.80
2017-11-11T23:34:57.077Z,88.00
2017-11-11T23:37:23.885Z,88.10
2017-11-11T23:39:52.580Z,88.00
2017-11-11T23:42:20.442Z,88.00
2017-11-11T23:44:48.133Z,87.80
2017-11-11T23:47:15.103Z,87.70
2017-11-11T23:49:41.721Z,87.50
2017-11-11T23:52:08.542Z,87.50
2017-11-11T23:54:35.299Z,87.40
2017-11-11T23:57:02.229Z,87.40
2017-11-11T23:59:29.080Z,87.00
